Time;durP1;ratioP1;P1;durP2;ratioP2;P2;SDS_P1;SDS_P2;PMS_P1;PMS_P2;Temp;Humidity;BMP_temperature;BMP_pressure;BME280_temperature;BME280_humidity;BME280_pressure;Samples;Min_cycle;Max_cycle;Signal;HPM_P1;HPM_P2
2023/02/03 00:01:11;;;;;;;0.90;0.80;;;2.90;97.30;;;;;;5019592;28;20465;-89
2023/02/03 00:03:37;;;;;;;1.00;0.90;;;2.90;97.30;;;;;;5023119;28;20280;-89
2023/02/03 00:06:03;;;;;;;1.00;0.90;;;2.90;97.30;;;;;;5023058;28;20235;-89
2023/02/03 00:08:29;;;;;;;1.43;1.33;;;2.90;97.30;;;;;;5016537;28;20657;-88
2023/02/03 00:10:55;;;;;;;0.97;0.87;;;2.90;97.30;;;;;;5017194;28;20425;-89
2023/02/03 00:13:21;;;;;;;1.00;0.90;;;2.90;97.30;;;;;;5023860;28;20547;-89
2023/02/03 00:15:47;;;;;;;1.20;1.10;;;2.90;97.30;;;;;;5025052;28;20196;-89
2023/02/03 00:18:12;;;;;;;0.90;0.80;;;2.90;97.30;;;;;;5016403;28;21044;-89
2023/02/03 00:20:38;;;;;;;1.97;1.47;;;2.90;97.30;;;;;;5017183;28;20670;-88
2023/02/03 00:23:09;;;;;;;1.10;1.00;;;2.90;97.30;;;;;;5016430;28;20580;-89
2023/02/03 00:25:35;;;;;;;1.10;1.00;;;2.90;97.30;;;;;;5034246;28;20559;-89
2023/02/03 00:28:01;;;;;;;1.53;1.43;;;2.90;97.30;;;;;;5016327;28;20462;-89
2023/02/03 00:30:27;;;;;;;0.93;0.83;;;2.90;97.30;;;;;;5016597;28;20430;-90
2023/02/03 00:32:53;;;;;;;1.03;0.93;;;2.90;97.30;;;;;;5015833;28;20561;-88
2023/02/03 00:35:18;;;;;;;1.60;1.50;;;2.90;97.30;;;;;;5016217;28;20431;-89
2023/02/03 00:37:56;;;;;;;0.90;0.80;;;2.90;97.30;;;;;;5016348;28;20184;-89
2023/02/03 00:40:24;;;;;;;0.90;0.80;;;2.90;97.30;;;;;;5015982;28;20228;-89
2023/02/03 00:42:50;;;;;;;1.00;0.90;;;2.90;97.30;;;;;;5015950;28;20795;-90
2023/02/03 00:45:15;;;;;;;1.00;0.90;;;2.90;97.30;;;;;;5015762;28;20439;-89
2023/02/03 00:47:41;;;;;;;5.03;1.83;;;2.90;97.30;;;;;;5015891;28;20204;-90
2023/02/03 00:50:07;;;;;;;1.10;1.00;;;2.90;97.30;;;;;;5016253;28;20212;-89
2023/02/03 00:52:33;;;;;;;0.90;0.80;;;2.90;97.30;;;;;;5015963;28;20248;-90
2023/02/03 00:54:58;;;;;;;1.00;0.90;;;2.90;97.30;;;;;;5015801;28;20514;-89
2023/02/03 00:57:24;;;;;;;1.00;0.90;;;2.90;97.30;;;;;;5015641;28;20655;-89
2023/02/03 00:59:49;;;;;;;1.10;1.00;;;2.90;97.30;;;;;;5014910;28;20210;-89
2023/02/03 01:02:18;;;;;;;1.20;1.10;;;2.90;97.30;;;;;;5015819;28;20226;-90
2023/02/03 01:04:44;;;;;;;1.10;1.00;;;2.90;97.30;;;;;;5015030;28;20576;-90
2023/02/03 01:07:09;;;;;;;1.30;1.20;;;2.90;97.30;;;;;;5016818;28;20474;-90
2023/02/03 01:09:36;;;;;;;1.27;1.17;;;2.90;97.30;;;;;;5015701;28;20216;-89
2023/02/03 01:12:02;;;;;;;1.53;1.03;;;2.90;97.30;;;;;;5042707;28;20192;-90
2023/02/03 01:14:28;;;;;;;1.17;1.07;;;3.00;97.30;;;;;;5015622;28;20817;-89
2023/02/03 01:16:53;;;;;;;1.93;1.77;;;3.00;97.30;;;;;;5015445;28;20569;-88
2023/02/03 01:19:19;;;;;;;1.17;1.07;;;3.00;97.30;;;;;;5015507;28;20184;-90
2023/02/03 01:21:44;;;;;;;1.00;0.90;;;3.00;97.30;;;;;;5015403;28;20230;-90
2023/02/03 01:24:16;;;;;;;0.90;0.80;;;3.00;97.30;;;;;;5033160;28;20267;-89
2023/02/03 01:26:41;;;;;;;0.83;0.80;;;3.10;97.30;;;;;;5015666;28;20204;-89
2023/02/03 01:29:07;;;;;;;1.60;1.20;;;3.10;97.30;;;;;;5015460;28;20430;-90
2023/02/03 01:31:38;;;;;;;1.00;0.90;;;3.10;97.30;;;;;;5033545;28;20183;-89
2023/02/03 01:34:05;;;;;;;1.57;1.47;;;3.10;97.30;;;;;;5033315;28;20210;-89
2023/02/03 01:36:33;;;;;;;1.10;1.00;;;3.10;97.30;;;;;;5015203;28;20447;-90
2023/02/03 01:38:58;;;;;;;1.13;1.03;;;3.10;97.30;;;;;;5015044;28;20554;-90
2023/02/03 01:41:27;;;;;;;0.90;0.80;;;3.10;97.30;;;;;;5014960;28;20891;-90
2023/02/03 01:43:55;;;;;;;1.93;1.47;;;3.10;97.30;;;;;;5006756;28;20181;-90
2023/02/03 01:46:29;;;;;;;1.10;1.00;;;3.10;97.30;;;;;;4987610;28;20475;-90
2023/02/03 01:49:10;;;;;;;0.90;0.80;;;3.20;97.30;;;;;;4995424;28;20432;-89
2023/02/03 01:51:39;;;;;;;1.90;1.07;;;3.20;97.30;;;;;;5002961;28;20431;-89
2023/02/03 01:54:07;;;;;;;1.13;1.03;;;3.20;97.30;;;;;;4996518;28;20527;-90
2023/02/03 01:56:37;;;;;;;2.67;2.50;;;3.30;97.30;;;;;;5009163;28;20439;-90
2023/02/03 01:59:03;;;;;;;1.20;1.10;;;3.30;97.30;;;;;;4994975;28;20459;-90
2023/02/03 02:01:31;;;;;;;1.10;0.90;;;3.30;97.30;;;;;;4995193;28;20455;-89
2023/02/03 02:04:00;;;;;;;1.97;1.53;;;3.30;97.30;;;;;;4995341;28;20425;-89
2023/02/03 02:06:26;;;;;;;1.93;1.83;;;3.40;97.30;;;;;;5014539;28;20763;-90
2023/02/03 02:08:52;;;;;;;1.00;0.90;;;3.40;97.30;;;;;;5016048;28;20503;-90
2023/02/03 02:11:21;;;;;;;1.37;1.27;;;3.40;97.30;;;;;;4994574;28;20185;-90
2023/02/03 02:13:50;;;;;;;1.60;1.50;;;3.50;97.30;;;;;;5002622;28;20436;-89
2023/02/03 02:16:46;;;;;;;1.37;1.27;;;3.50;97.30;;;;;;4994619;28;20531;-89
2023/02/03 02:19:47;;;;;;;1.03;0.93;;;3.50;97.30;;;;;;4988268;28;20439;-90
2023/02/03 02:22:29;;;;;;;1.33;1.23;;;3.50;97.30;;;;;;5011620;28;20863;-89
2023/02/03 02:25:24;;;;;;;1.03;0.93;;;3.60;97.30;;;;;;5005955;28;20643;-89
2023/02/03 02:28:11;;;;;;;1.10;1.00;;;3.60;97.30;;;;;;4994518;28;20468;-90
2023/02/03 02:31:05;;;;;;;1.80;1.77;;;3.70;97.30;;;;;;4996336;28;20814;-90
2023/02/03 02:33:56;;;;;;;2.03;1.40;;;3.70;97.30;;;;;;4994316;28;20412;-90
2023/02/03 02:36:34;;;;;;;1.10;1.00;;;3.70;97.30;;;;;;4996087;28;20464;-89
2023/02/03 02:39:25;;;;;;;2.33;2.13;;;3.70;97.30;;;;;;5005175;28;20498;-90
2023/02/03 02:42:00;;;;;;;1.43;1.33;;;3.70;97.30;;;;;;4998345;28;20436;-90
2023/02/03 02:44:42;;;;;;;1.27;1.17;;;3.80;97.30;;;;;;4993853;28;20929;-89
2023/02/03 02:47:22;;;;;;;1.83;1.73;;;3.80;97.30;;;;;;4995771;28;20526;-89
2023/02/03 02:50:08;;;;;;;1.50;1.40;;;3.90;97.30;;;;;;4998657;28;20507;-89
2023/02/03 02:52:37;;;;;;;2.53;2.33;;;3.90;97.30;;;;;;4992763;28;20419;-89
2023/02/03 02:55:18;;;;;;;1.83;1.73;;;4.00;97.30;;;;;;5031261;28;20541;-89
2023/02/03 02:57:45;;;;;;;1.57;1.50;;;4.00;97.30;;;;;;5013621;28;20865;-89
2023/02/03 03:00:11;;;;;;;2.30;1.53;;;4.10;97.30;;;;;;4997106;28;20622;-89
2023/02/03 03:02:37;;;;;;;3.60;2.00;;;4.10;97.30;;;;;;5005570;28;20520;-88
2023/02/03 03:05:09;;;;;;;2.60;2.40;;;4.20;97.30;;;;;;5014641;28;20540;-89
2023/02/03 03:07:50;;;;;;;1.77;1.73;;;4.20;97.30;;;;;;4994340;28;20228;-89
2023/02/03 03:10:21;;;;;;;3.37;2.73;;;4.30;97.30;;;;;;4994502;28;20792;-89
2023/02/03 03:12:53;;;;;;;4.43;3.93;;;4.40;97.30;;;;;;5018831;28;20836;-89
2023/02/03 03:15:24;;;;;;;2.73;2.53;;;4.50;97.30;;;;;;4994807;28;20444;-90
2023/02/03 03:18:11;;;;;;;2.73;2.53;;;4.50;97.30;;;;;;4994011;28;20621;-89
2023/02/03 03:20:41;;;;;;;3.70;2.60;;;4.60;97.30;;;;;;4993583;28;20432;-90
2023/02/03 03:23:13;;;;;;;1.30;1.20;;;4.70;97.30;;;;;;5019074;28;20950;-89
2023/02/03 03:25:46;;;;;;;1.83;1.73;;;4.80;97.30;;;;;;4999384;28;20450;-90
2023/02/03 03:28:28;;;;;;;1.30;1.20;;;4.90;97.30;;;;;;5005190;28;20467;-89
2023/02/03 03:30:53;;;;;;;1.60;1.40;;;4.90;97.30;;;;;;5031590;28;20430;-90
2023/02/03 03:33:21;;;;;;;1.90;1.80;;;5.00;97.30;;;;;;4994773;28;20491;-89
2023/02/03 03:35:58;;;;;;;24.90;3.77;;;5.10;97.30;;;;;;5017864;28;20548;-89
2023/02/03 03:38:35;;;;;;;2.40;2.20;;;5.20;97.30;;;;;;5005031;28;20427;-89
2023/02/03 03:41:42;;;;;;;1.90;1.80;;;5.20;97.30;;;;;;4996857;28;20942;-89
2023/02/03 03:44:14;;;;;;;5.10;2.33;;;5.30;97.30;;;;;;4993560;28;20511;-89
2023/02/03 03:46:49;;;;;;;3.27;3.07;;;5.30;97.30;;;;;;4993406;28;20472;-89
2023/02/03 03:49:16;;;;;;;2.13;1.97;;;5.40;97.30;;;;;;5000616;28;20419;-89
2023/02/03 03:51:56;;;;;;;2.40;2.23;;;5.40;97.30;;;;;;4998850;28;20427;-90
2023/02/03 03:54:24;;;;;;;3.37;2.50;;;5.50;97.30;;;;;;4993422;28;20415;-89
2023/02/03 03:56:57;;;;;;;2.50;2.30;;;5.50;97.30;;;;;;4993662;28;20442;-90
2023/02/03 03:59:24;;;;;;;4.87;3.67;;;5.60;97.30;;;;;;4993196;28;20459;-89
2023/02/03 04:01:50;;;;;;;3.90;1.93;;;5.60;97.30;;;;;;4992200;28;20435;-89
2023/02/03 04:04:16;;;;;;;2.30;2.03;;;5.60;97.30;;;;;;4992841;28;20503;-90
2023/02/03 04:06:42;;;;;;;5.90;3.40;;;5.60;97.30;;;;;;4993681;28;20468;-90
2023/02/03 04:09:07;;;;;;;2.47;2.30;;;5.60;97.30;;;;;;5001481;28;20413;-89
2023/02/03 04:14:17;;;;;;;4.73;2.90;;;5.70;97.30;;;;;;5018857;28;20352;-89
2023/02/03 04:16:42;;;;;;;3.67;2.63;;;5.70;97.30;;;;;;4993093;28;20539;-89
2023/02/03 04:19:08;;;;;;;5.60;5.27;;;5.70;97.30;;;;;;5019773;28;20235;-89
2023/02/03 04:21:33;;;;;;;6.67;3.37;;;5.70;97.30;;;;;;5008125;28;20189;-89
2023/02/03 04:23:59;;;;;;;5.23;2.63;;;5.80;97.30;;;;;;5011019;28;20588;-88
2023/02/03 04:26:25;;;;;;;7.17;3.93;;;5.80;97.30;;;;;;5026828;28;20655;-89
2023/02/03 04:28:50;;;;;;;2.33;2.13;;;5.90;97.30;;;;;;5019656;28;20189;-89
2023/02/03 04:31:16;;;;;;;3.70;3.47;;;6.00;97.30;;;;;;5001417;28;20182;-89
2023/02/03 04:33:41;;;;;;;4.33;3.40;;;6.10;97.30;;;;;;4995087;28;20526;-90
2023/02/03 04:36:07;;;;;;;3.50;2.27;;;6.10;97.30;;;;;;5021071;28;20201;-90
2023/02/03 04:38:33;;;;;;;3.07;2.33;;;6.20;97.30;;;;;;5014102;28;20229;-89
2023/02/03 04:40:59;;;;;;;6.60;3.83;;;6.20;97.30;;;;;;4996235;28;20490;-90
2023/02/03 04:43:24;;;;;;;1.93;1.83;;;6.30;97.30;;;;;;5001353;28;20675;-89
2023/02/03 04:45:50;;;;;;;5.90;2.33;;;6.30;97.30;;;;;;4991200;28;20205;-90
2023/02/03 04:48:15;;;;;;;3.20;3.00;;;6.30;97.30;;;;;;4996552;28;20486;-90
2023/02/03 04:50:41;;;;;;;8.03;4.80;;;6.40;97.30;;;;;;4998828;28;20190;-90
2023/02/03 04:53:06;;;;;;;3.30;2.17;;;6.40;97.30;;;;;;4993300;28;20187;-89
2023/02/03 04:55:32;;;;;;;3.63;3.43;;;6.40;97.30;;;;;;4992253;28;20198;-89
2023/02/03 04:57:59;;;;;;;4.80;3.00;;;6.40;97.30;;;;;;4992046;28;20185;-90
2023/02/03 05:00:25;;;;;;;3.07;2.87;;;6.40;97.30;;;;;;5020561;28;20189;-90
2023/02/03 05:02:51;;;;;;;4.40;3.10;;;6.50;97.30;;;;;;5004506;28;20423;-90
2023/02/03 05:05:17;;;;;;;4.43;4.13;;;6.50;97.30;;;;;;4998222;28;20456;-89
2023/02/03 05:07:42;;;;;;;5.60;4.03;;;6.50;97.30;;;;;;4994761;28;20201;-89
2023/02/03 05:10:08;;;;;;;4.60;3.90;;;6.60;97.30;;;;;;4995429;28;20276;-89
2023/02/03 05:12:34;;;;;;;3.27;2.43;;;6.60;97.30;;;;;;5003961;28;20184;-90
2023/02/03 05:14:59;;;;;;;4.10;3.10;;;6.60;97.30;;;;;;5003866;28;20444;-90
2023/02/03 05:17:25;;;;;;;4.07;3.03;;;6.60;97.30;;;;;;5004231;28;20191;-90
2023/02/03 05:19:50;;;;;;;5.80;3.23;;;6.60;97.30;;;;;;4995956;28;20185;-90
2023/02/03 05:22:16;;;;;;;3.80;3.07;;;6.70;97.30;;;;;;5013517;28;20261;-89
2023/02/03 05:24:41;;;;;;;3.80;3.00;;;6.70;97.30;;;;;;5004051;28;20209;-89
2023/02/03 05:27:07;;;;;;;2.77;2.57;;;6.70;97.30;;;;;;4995492;28;20212;-90
2023/02/03 05:29:32;;;;;;;6.13;2.33;;;6.70;97.30;;;;;;5004134;28;20188;-90
2023/02/03 05:31:58;;;;;;;3.53;2.80;;;6.70;97.30;;;;;;5003564;28;20181;-90
2023/02/03 05:34:23;;;;;;;6.00;3.20;;;6.70;97.30;;;;;;5005988;28;22060;-89
2023/02/03 05:36:49;;;;;;;2.87;2.20;;;6.70;97.30;;;;;;5001165;28;20174;-90
2023/02/03 05:39:14;;;;;;;3.00;2.50;;;6.70;97.30;;;;;;5005650;28;20233;-89
2023/02/03 05:41:52;;;;;;;3.30;3.10;;;6.70;97.30;;;;;;5015784;28;20185;-89
2023/02/03 05:44:25;;;;;;;2.17;2.00;;;6.80;97.30;;;;;;4997332;28;20189;-89
2023/02/03 05:46:53;;;;;;;7.80;3.33;;;6.80;97.30;;;;;;5009800;28;20528;-89
2023/02/03 05:49:18;;;;;;;2.50;1.57;;;6.80;97.30;;;;;;5005224;28;20419;-89
2023/02/03 05:51:45;;;;;;;6.13;2.70;;;6.80;97.30;;;;;;4996329;28;20420;-89
2023/02/03 05:54:11;;;;;;;2.87;2.67;;;6.80;97.30;;;;;;5004113;28;20558;-89
2023/02/03 05:56:37;;;;;;;4.67;2.10;;;6.90;97.30;;;;;;5013402;28;20438;-90
2023/02/03 05:59:04;;;;;;;3.17;2.97;;;6.90;97.30;;;;;;5012445;28;20423;-89
2023/02/03 06:01:29;;;;;;;3.80;2.73;;;6.90;97.30;;;;;;5017635;28;20493;-90
2023/02/03 06:03:55;;;;;;;2.40;2.03;;;6.90;97.30;;;;;;5007941;28;20941;-89
2023/02/03 06:06:20;;;;;;;5.13;1.67;;;6.90;97.30;;;;;;5007694;28;20201;-89
2023/02/03 06:08:46;;;;;;;3.30;3.13;;;7.00;97.30;;;;;;5003291;28;20243;-89
2023/02/03 06:11:12;;;;;;;4.27;2.10;;;7.00;97.30;;;;;;5015977;28;20181;-89
2023/02/03 06:13:37;;;;;;;1.90;1.80;;;7.00;97.30;;;;;;5000083;28;20177;-88
2023/02/03 06:16:03;;;;;;;6.60;2.67;;;7.00;97.30;;;;;;5006655;28;20201;-90
2023/02/03 06:18:28;;;;;;;5.40;3.23;;;7.10;97.30;;;;;;4998002;28;20182;-89
2023/02/03 06:20:54;;;;;;;1.63;1.57;;;7.10;97.30;;;;;;5018723;28;20189;-89
2023/02/03 06:23:22;;;;;;;5.57;2.80;;;7.10;97.30;;;;;;5005428;28;20176;-88
2023/02/03 06:25:51;;;;;;;1.50;1.40;;;7.10;97.30;;;;;;5003717;28;20211;-88
2023/02/03 06:28:27;;;;;;;2.40;2.20;;;7.10;97.30;;;;;;5007858;28;20703;-89
2023/02/03 06:30:55;;;;;;;4.33;2.77;;;7.20;97.30;;;;;;5005494;28;20426;-89
2023/02/03 06:33:22;;;;;;;4.13;2.03;;;7.20;97.30;;;;;;5007581;28;20420;-89
2023/02/03 06:35:48;;;;;;;4.10;3.70;;;7.20;97.30;;;;;;5011655;28;20502;-88
2023/02/03 06:38:13;;;;;;;3.40;1.50;;;7.20;97.30;;;;;;5018436;28;20400;-89
2023/02/03 06:40:39;;;;;;;8.73;3.50;;;7.30;97.30;;;;;;5039474;28;20179;-89
2023/02/03 06:43:04;;;;;;;7.90;3.73;;;7.30;97.30;;;;;;5024341;28;20197;-88
2023/02/03 06:45:30;;;;;;;5.37;5.07;;;7.30;97.30;;;;;;5008524;28;20235;-91
2023/02/03 06:47:55;;;;;;;7.57;2.07;;;7.30;97.30;;;;;;5005711;28;20471;-91
2023/02/03 06:50:21;;;;;;;2.80;1.93;;;7.30;97.30;;;;;;5028379;28;20187;-90
2023/02/03 06:52:49;;;;;;;3.37;2.87;;;7.30;97.30;;;;;;5003916;28;20176;-88
2023/02/03 06:55:14;;;;;;;4.00;2.50;;;7.30;97.30;;;;;;5007245;28;20278;-89
2023/02/03 06:57:47;;;;;;;1.77;1.67;;;7.30;97.30;;;;;;5005485;28;20415;-90
2023/02/03 07:00:15;;;;;;;1.83;1.77;;;7.30;97.30;;;;;;5034778;28;20179;-88
2023/02/03 07:02:41;;;;;;;2.57;2.00;;;7.30;97.30;;;;;;5031084;28;20481;-89
2023/02/03 07:05:06;;;;;;;2.30;1.80;;;7.40;97.30;;;;;;5023189;28;20446;-89
2023/02/03 07:07:32;;;;;;;1.80;1.70;;;7.40;97.30;;;;;;5018650;28;20239;-89
2023/02/03 07:09:59;;;;;;;1.93;1.83;;;7.40;97.30;;;;;;5029340;28;20248;-87
2023/02/03 07:12:24;;;;;;;7.30;2.73;;;7.40;97.30;;;;;;5017386;28;20430;-88
2023/02/03 07:14:50;;;;;;;2.50;2.30;;;7.40;97.30;;;;;;5036182;28;20450;-88
2023/02/03 07:17:15;;;;;;;3.07;2.47;;;7.40;97.30;;;;;;5016864;28;20180;-89
2023/02/03 07:19:41;;;;;;;3.83;2.43;;;7.40;97.30;;;;;;5012410;28;20177;-88
2023/02/03 07:22:07;;;;;;;2.83;2.20;;;7.40;97.30;;;;;;5014081;28;20180;-88
2023/02/03 07:24:33;;;;;;;1.30;1.20;;;7.50;97.30;;;;;;5011075;28;20585;-88
2023/02/03 07:26:58;;;;;;;2.37;2.17;;;7.50;97.30;;;;;;5013815;28;20462;-87
2023/02/03 07:29:24;;;;;;;5.03;3.07;;;7.50;97.30;;;;;;5023893;28;20394;-87
2023/02/03 07:31:49;;;;;;;2.07;1.97;;;7.50;97.30;;;;;;5009241;28;20187;-87
2023/02/03 07:34:15;;;;;;;1.70;1.40;;;7.50;97.30;;;;;;5020817;28;20192;-87
2023/02/03 07:36:40;;;;;;;3.70;1.63;;;7.50;97.30;;;;;;5015611;28;20654;-88
2023/02/03 07:39:06;;;;;;;2.17;2.00;;;7.50;97.30;;;;;;5014590;28;20220;-87
2023/02/03 07:41:31;;;;;;;1.70;1.60;;;7.50;97.30;;;;;;4995874;28;20177;-87
2023/02/03 07:43:57;;;;;;;2.53;2.37;;;7.50;97.30;;;;;;5004093;28;20228;-87
2023/02/03 07:46:22;;;;;;;1.63;1.40;;;7.60;97.30;;;;;;5003791;28;20203;-87
2023/02/03 07:48:48;;;;;;;4.80;2.27;;;7.60;97.30;;;;;;5000710;28;20174;-88
2023/02/03 07:51:13;;;;;;;3.03;2.03;;;7.60;97.30;;;;;;5000725;28;20319;-88
2023/02/03 07:53:39;;;;;;;9.83;2.90;;;7.60;97.30;;;;;;4995886;28;20339;-89
2023/02/03 07:56:04;;;;;;;2.50;2.30;;;7.70;97.30;;;;;;5020639;28;20208;-87
2023/02/03 07:58:31;;;;;;;1.63;1.40;;;7.70;97.30;;;;;;5005508;28;20185;-87
2023/02/03 08:00:57;;;;;;;3.80;2.83;;;7.70;97.30;;;;;;5004119;28;20541;-87
2023/02/03 08:03:23;;;;;;;2.00;1.60;;;7.70;97.30;;;;;;4995447;28;20424;-87
2023/02/03 08:05:49;;;;;;;1.70;1.60;;;7.70;97.30;;;;;;4995074;28;20453;-87
2023/02/03 08:08:15;;;;;;;6.53;2.27;;;7.70;97.30;;;;;;4998095;28;20197;-87
2023/02/03 08:10:40;;;;;;;2.73;2.20;;;7.70;97.30;;;;;;5001356;28;20451;-88
2023/02/03 08:13:06;;;;;;;2.20;1.80;;;7.70;97.30;;;;;;4997028;28;20185;-87
2023/02/03 08:15:31;;;;;;;3.83;3.23;;;7.70;97.30;;;;;;5005437;28;20708;-87
2023/02/03 08:17:59;;;;;;;2.50;2.30;;;7.80;97.30;;;;;;5005735;28;20188;-87
2023/02/03 08:20:24;;;;;;;4.93;2.50;;;7.80;97.30;;;;;;5002620;28;20227;-88
2023/02/03 08:22:51;;;;;;;3.87;2.87;;;7.80;97.30;;;;;;5028399;28;20961;-87
2023/02/03 08:25:16;;;;;;;3.63;3.43;;;7.80;97.30;;;;;;4999292;28;20288;-88
2023/02/03 08:27:42;;;;;;;1.73;1.63;;;7.80;97.30;;;;;;5016925;28;20606;-87
2023/02/03 08:30:11;;;;;;;1.70;1.60;;;7.80;97.30;;;;;;5017316;28;20185;-87
2023/02/03 08:32:37;;;;;;;2.70;2.50;;;7.80;97.30;;;;;;4998662;28;20182;-87
2023/02/03 08:35:03;;;;;;;16.10;3.67;;;7.90;97.30;;;;;;5001274;28;20451;-87
2023/02/03 08:37:31;;;;;;;1.97;1.87;;;7.90;97.30;;;;;;5001103;28;20192;-87
2023/02/03 08:39:57;;;;;;;2.90;1.60;;;7.90;97.30;;;;;;5015242;28;20532;-88
2023/02/03 08:42:23;;;;;;;3.90;2.23;;;7.90;97.30;;;;;;5035198;28;20427;-87
2023/02/03 08:44:48;;;;;;;2.13;1.97;;;7.90;97.30;;;;;;5007584;28;20490;-87
2023/02/03 08:47:14;;;;;;;2.47;2.27;;;7.90;97.30;;;;;;5030588;28;20227;-87
2023/02/03 08:49:40;;;;;;;2.13;1.93;;;7.90;97.30;;;;;;5016281;28;20209;-87
2023/02/03 08:52:09;;;;;;;1.30;1.20;;;7.90;97.30;;;;;;5035717;28;20975;-87
2023/02/03 08:54:35;;;;;;;1.87;1.77;;;7.90;97.30;;;;;;5017969;28;20942;-88
2023/02/03 08:57:00;;;;;;;2.10;1.73;;;8.00;97.30;;;;;;5017378;28;20481;-87
2023/02/03 08:59:26;;;;;;;2.20;1.30;;;8.00;97.30;;;;;;5019112;28;20473;-87
2023/02/03 09:01:52;;;;;;;1.37;1.27;;;8.00;97.30;;;;;;5019109;28;20191;-88
2023/02/03 09:04:18;;;;;;;1.13;1.03;;;8.00;97.30;;;;;;5036533;28;20438;-87
2023/02/03 09:06:47;;;;;;;1.57;1.47;;;8.00;97.30;;;;;;5017895;28;20204;-87
2023/02/03 09:09:14;;;;;;;2.00;1.90;;;8.00;97.30;;;;;;5036569;28;20419;-87
2023/02/03 09:11:41;;;;;;;1.20;1.10;;;8.10;97.30;;;;;;5010120;28;20423;-87
2023/02/03 09:14:06;;;;;;;1.63;1.60;;;8.10;97.30;;;;;;5034286;28;20430;-88
2023/02/03 09:16:33;;;;;;;1.43;1.20;;;8.10;97.30;;;;;;5022556;28;20441;-88
2023/02/03 09:18:58;;;;;;;2.83;1.10;;;8.20;97.30;;;;;;5024401;28;20654;-89
2023/02/03 09:21:24;;;;;;;4.07;2.30;;;8.20;97.30;;;;;;5021071;28;20471;-88
2023/02/03 09:23:49;;;;;;;1.60;1.50;;;8.20;97.30;;;;;;5029846;28;20181;-88
2023/02/03 09:26:15;;;;;;;1.50;1.40;;;8.20;97.30;;;;;;5021767;28;20226;-87
2023/02/03 09:28:40;;;;;;;1.10;1.00;;;8.20;97.30;;;;;;5020358;28;20338;-87
2023/02/03 09:31:09;;;;;;;1.03;0.93;;;8.30;97.30;;;;;;5027924;28;20279;-90
2023/02/03 09:33:35;;;;;;;1.77;1.67;;;8.30;97.30;;;;;;5016532;28;20191;-88
2023/02/03 09:36:01;;;;;;;4.20;2.70;;;8.30;97.30;;;;;;5018018;28;20447;-88
2023/02/03 09:38:27;;;;;;;1.00;0.90;;;8.30;97.30;;;;;;5026138;28;20488;-88
2023/02/03 09:41:34;;;;;;;1.33;1.23;;;8.30;97.30;;;;;;5018708;28;20431;-88
2023/02/03 09:44:24;;;;;;;1.67;1.57;;;8.40;97.30;;;;;;4984300;28;20435;-88
2023/02/03 09:46:55;;;;;;;1.10;1.00;;;8.30;97.30;;;;;;5033096;28;20470;-88
2023/02/03 09:49:52;;;;;;;1.43;1.33;;;8.30;97.30;;;;;;5030105;28;20507;-89
2023/02/03 09:52:29;;;;;;;1.30;1.20;;;8.40;97.30;;;;;;5029492;28;20432;-88
2023/02/03 09:55:05;;;;;;;2.20;1.43;;;8.40;97.30;;;;;;5022174;28;20454;-88
2023/02/03 09:57:57;;;;;;;1.20;1.10;;;8.40;97.30;;;;;;5023529;28;20426;-87
2023/02/03 10:00:28;;;;;;;3.37;1.87;;;8.40;97.30;;;;;;5034757;28;20439;-86
2023/02/03 10:03:02;;;;;;;0.80;0.70;;;8.40;97.30;;;;;;5017814;28;20561;-87
2023/02/03 10:05:53;;;;;;;2.10;1.10;;;8.40;97.30;;;;;;5020665;28;20556;-87
2023/02/03 10:08:24;;;;;;;20.40;2.13;;;8.40;97.30;;;;;;5009920;28;20491;-89
2023/02/03 10:11:09;;;;;;;2.20;2.00;;;8.40;97.30;;;;;;5016177;28;20472;-88
2023/02/03 10:14:12;;;;;;;1.50;1.40;;;8.40;97.30;;;;;;5018171;28;20572;-88
2023/02/03 10:16:47;;;;;;;1.10;1.00;;;8.40;97.30;;;;;;5017201;28;20431;-86
2023/02/03 10:19:20;;;;;;;2.10;1.37;;;8.40;97.30;;;;;;5019191;28;20430;-88
2023/02/03 10:21:58;;;;;;;1.93;1.83;;;8.40;97.30;;;;;;5009460;28;20428;-88
2023/02/03 10:24:34;;;;;;;4.63;2.60;;;8.40;97.30;;;;;;5016209;28;20485;-87
2023/02/03 10:27:00;;;;;;;1.73;1.63;;;8.40;97.30;;;;;;5016134;28;20472;-87
2023/02/03 10:29:37;;;;;;;1.33;1.27;;;8.40;97.30;;;;;;5016524;28;20483;-87
2023/02/03 10:32:07;;;;;;;1.73;1.60;;;8.40;97.30;;;;;;5015706;28;20234;-88
2023/02/03 10:34:33;;;;;;;1.23;1.13;;;8.40;97.30;;;;;;5014488;28;20729;-86
2023/02/03 10:37:05;;;;;;;1.67;1.57;;;8.30;97.30;;;;;;5015622;28;20419;-87
2023/02/03 10:39:32;;;;;;;1.63;1.53;;;8.40;97.30;;;;;;5013636;28;20765;-88
2023/02/03 10:41:59;;;;;;;1.30;1.20;;;8.40;97.30;;;;;;5016079;28;20794;-88
2023/02/03 10:44:35;;;;;;;2.33;1.70;;;8.40;97.30;;;;;;5014947;28;20419;-87
2023/02/03 10:47:00;;;;;;;2.10;1.50;;;8.40;97.30;;;;;;5021147;28;20624;-87
2023/02/03 10:49:27;;;;;;;1.10;1.00;;;8.40;97.30;;;;;;5017921;28;20868;-88
2023/02/03 10:51:57;;;;;;;5.70;1.67;;;8.40;97.30;;;;;;5014360;28;20650;-88
2023/02/03 10:54:32;;;;;;;1.10;1.00;;;8.40;97.30;;;;;;5015265;28;20412;-86
2023/02/03 10:57:09;;;;;;;0.90;0.80;;;8.40;97.30;;;;;;5039982;28;20450;-89
2023/02/03 10:59:39;;;;;;;2.20;1.40;;;8.40;97.30;;;;;;5016308;28;20427;-88
2023/02/03 11:02:20;;;;;;;1.20;1.10;;;8.50;97.30;;;;;;5017589;28;20427;-88
2023/02/03 11:04:45;;;;;;;1.20;1.17;;;8.50;97.30;;;;;;5026683;28;20431;-89
2023/02/03 11:07:24;;;;;;;1.23;1.13;;;8.40;97.30;;;;;;5017052;28;20517;-88
2023/02/03 11:09:49;;;;;;;2.90;2.27;;;8.40;97.30;;;;;;5009512;28;20271;-87
2023/02/03 11:12:18;;;;;;;1.00;0.90;;;8.30;97.30;;;;;;5017317;28;20936;-88
2023/02/03 11:14:48;;;;;;;1.07;0.97;;;8.30;97.30;;;;;;5034129;28;20260;-87
2023/02/03 11:17:22;;;;;;;1.10;1.00;;;8.30;97.30;;;;;;5024687;28;20793;-88
2023/02/03 11:19:50;;;;;;;1.00;0.90;;;8.30;97.30;;;;;;5009880;28;20410;-87
2023/02/03 11:22:40;;;;;;;2.43;1.40;;;8.20;97.30;;;;;;5018432;28;20419;-87
2023/02/03 11:25:17;;;;;;;1.10;1.00;;;8.30;97.30;;;;;;5016803;28;20454;-88
2023/02/03 11:27:44;;;;;;;2.77;1.40;;;8.30;97.30;;;;;;5016978;28;20457;-88
2023/02/03 11:30:16;;;;;;;1.20;1.10;;;8.20;97.30;;;;;;5016351;28;20415;-87
2023/02/03 11:32:44;;;;;;;2.10;1.27;;;8.20;97.30;;;;;;5019667;28;20426;-86
2023/02/03 11:35:28;;;;;;;1.00;0.90;;;8.20;97.30;;;;;;5026439;28;20831;-88
2023/02/03 11:37:59;;;;;;;2.83;1.63;;;8.20;97.30;;;;;;5010983;28;20798;-88
2023/02/03 11:40:32;;;;;;;1.50;1.40;;;8.20;97.30;;;;;;5032694;28;20450;-88
2023/02/03 11:43:04;;;;;;;1.27;1.00;;;8.20;97.30;;;;;;5016570;28;20426;-87
2023/02/03 11:45:49;;;;;;;1.00;0.90;;;8.20;97.30;;;;;;5015938;28;20441;-86
2023/02/03 11:48:35;;;;;;;1.10;1.00;;;8.20;97.30;;;;;;5017942;28;20467;-88
2023/02/03 11:51:12;;;;;;;1.07;0.97;;;8.20;97.30;;;;;;5011096;28;20757;-88
2023/02/03 11:53:46;;;;;;;1.37;1.10;;;8.20;97.30;;;;;;5035258;28;20422;-88
2023/02/03 11:56:31;;;;;;;1.13;1.03;;;8.20;97.30;;;;;;5018369;28;20521;-88
2023/02/03 11:59:02;;;;;;;1.43;1.30;;;8.20;97.30;;;;;;5010363;28;20434;-89
2023/02/03 12:01:43;;;;;;;1.20;1.10;;;8.20;97.30;;;;;;5017727;28;20492;-87
2023/02/03 12:04:41;;;;;;;1.10;1.00;;;8.20;97.30;;;;;;5018121;28;20461;-89
2023/02/03 12:07:43;;;;;;;0.90;0.80;;;8.20;97.30;;;;;;5012636;28;20533;-88
2023/02/03 12:11:02;;;;;;;1.73;1.63;;;8.20;97.30;;;;;;5018895;28;20415;-88
2023/02/03 12:13:43;;;;;;;0.90;0.80;;;8.30;97.30;;;;;;4999308;28;20412;-87
2023/02/03 12:17:12;;;;;;;1.20;1.10;;;8.30;97.30;;;;;;5017045;28;20973;-87
2023/02/03 12:20:21;;;;;;;0.87;0.77;;;8.30;97.30;;;;;;4953562;28;20888;-88
2023/02/03 12:23:40;;;;;;;2.20;1.20;;;8.40;97.30;;;;;;4931120;29;20962;-87
2023/02/03 12:29:52;;;;;;;1.67;1.57;;;8.40;97.30;;;;;;4912885;28;20518;-84
2023/02/03 12:32:33;;;;;;;1.10;1.00;;;8.40;97.30;;;;;;4935003;29;20419;-85
2023/02/03 12:35:31;;;;;;;1.00;0.90;;;8.40;97.30;;;;;;5005274;28;20446;-85
2023/02/03 12:38:12;;;;;;;2.00;1.60;;;8.40;97.30;;;;;;5015717;28;20506;-85
2023/02/03 12:40:52;;;;;;;1.00;0.90;;;8.40;97.30;;;;;;5006059;28;21004;-85
2023/02/03 12:43:36;;;;;;;;;;;;;;;;;;;;;
2023/02/03 12:49:19;;;;;;;3.00;1.97;;;8.50;97.30;;;;;;5014395;28;20456;-87
2023/02/03 12:52:00;;;;;;;1.00;0.90;;;8.60;97.30;;;;;;5013792;28;20431;-88
2023/02/03 12:54:50;;;;;;;1.10;1.00;;;8.50;97.30;;;;;;5009273;28;20494;-88
2023/02/03 12:57:53;;;;;;;0.83;0.73;;;8.40;97.30;;;;;;5022989;28;20411;-88
2023/02/03 13:00:31;;;;;;;1.00;0.90;;;8.30;97.30;;;;;;5018697;28;20431;-87
2023/02/03 13:03:20;;;;;;;1.10;1.00;;;8.30;97.30;;;;;;5017448;28;20423;-85
2023/02/03 13:06:27;;;;;;;;;;;;;;;;;;;;;
2023/02/03 13:12:03;;;;;;;1.00;0.90;;;8.20;97.30;;;;;;5016765;28;20422;-88
2023/02/03 13:14:53;;;;;;;1.10;1.00;;;8.20;97.30;;;;;;5024860;28;20426;-88
2023/02/03 13:17:30;;;;;;;11.90;1.53;;;8.20;97.30;;;;;;5014959;28;20451;-90
2023/02/03 13:20:03;;;;;;;1.07;0.97;;;8.10;97.30;;;;;;5015084;28;20453;-89
2023/02/03 13:22:28;;;;;;;0.90;0.80;;;8.10;97.30;;;;;;5010201;28;20439;-87
2023/02/03 13:25:16;;;;;;;0.83;0.73;;;8.10;97.30;;;;;;5035675;28;20945;-88
2023/02/03 13:28:06;;;;;;;1.10;1.00;;;8.10;97.30;;;;;;5018215;28;20744;-88
2023/02/03 13:30:42;;;;;;;3.63;3.43;;;8.10;97.30;;;;;;5016304;28;20432;-88
2023/02/03 13:33:44;;;;;;;1.80;1.53;;;8.10;97.30;;;;;;5015112;28;20434;-90
2023/02/03 13:36:28;;;;;;;2.60;1.70;;;8.10;97.30;;;;;;5018847;28;20450;-90